Time;durP1;ratioP1;P1;durP2;ratioP2;P2;SDS_P1;SDS_P2;PMS_P1;PMS_P2;Temp;Humidity;BMP_temperature;BMP_pressure;BME280_temperature;BME280_humidity;BME280_pressure;Samples;Min_cycle;Max_cycle;Signal;HPM_P1;HPM_P2
2024/01/27 00:02:31;;;;;;;0.60;0.40;;;;;;;7.83;50.01;98505.63;1195401;75;5055270;-66
2024/01/27 00:05:04;;;;;;;0.75;0.55;;;;;;;7.77;49.52;98515.53;1223116;75;2923725;-66
2024/01/27 00:07:36;;;;;;;0.40;0.40;;;;;;;7.80;49.11;98512.72;1222900;75;2932891;-64
2024/01/27 00:10:11;;;;;;;2.35;0.70;;;;;;;7.88;48.87;98507.81;1222668;67;2928558;-67
2024/01/27 00:12:47;;;;;;;1.75;0.60;;;;;;;8.08;48.05;98497.44;1222341;75;2923988;-67
2024/01/27 00:15:22;;;;;;;2.05;0.90;;;;;;;7.97;48.30;98515.34;1222750;75;2924896;-69
2024/01/27 00:17:55;;;;;;;2.35;0.60;;;;;;;7.97;48.36;98515.34;1222423;75;2925783;-67
2024/01/27 00:20:28;;;;;;;1.15;0.50;;;;;;;7.71;49.42;98520.00;1222059;75;2913848;-69
2024/01/27 00:23:01;;;;;;;2.75;0.60;;;;;;;7.85;48.62;98525.03;1188417;75;5670554;-65
2024/01/27 00:25:36;;;;;;;1.95;0.65;;;;;;;7.81;48.56;98513.47;1221904;75;3012149;-65
2024/01/27 00:28:12;;;;;;;1.35;0.80;;;;;;;7.80;48.30;98534.53;1223197;75;2931019;-68
2024/01/27 00:30:45;;;;;;;1.05;0.55;;;;;;;7.94;47.95;98524.38;1196610;75;4982577;-67
2024/01/27 00:33:18;;;;;;;2.20;0.50;;;;;;;7.92;47.82;98533.00;1223833;75;2928359;-68
2024/01/27 00:35:50;;;;;;;1.25;0.60;;;;;;;7.81;48.40;98535.28;1223540;75;2929862;-66
2024/01/27 00:38:23;;;;;;;1.85;0.70;;;;;;;7.93;47.93;98531.78;1224081;75;2929885;-67
2024/01/27 00:40:56;;;;;;;1.25;0.55;;;;;;;7.86;47.93;98532.00;1224037;75;2927718;-66
2024/01/27 00:43:31;;;;;;;2.10;0.70;;;;;;;7.77;48.13;98523.72;1222490;75;2932676;-66
2024/01/27 00:46:04;;;;;;;0.45;0.45;;;;;;;7.78;48.03;98528.75;1224265;75;2922812;-64
2024/01/27 00:48:37;;;;;;;1.55;0.50;;;;;;;7.66;48.51;98518.59;1223519;75;2930977;-67
2024/01/27 00:51:10;;;;;;;1.75;0.70;;;;;;;7.73;48.67;98525.81;1224480;75;2923238;-68
2024/01/27 00:53:43;;;;;;;0.75;0.50;;;;;;;7.84;47.32;98520.78;1223763;75;2922676;-66
2024/01/27 00:56:15;;;;;;;0.60;0.45;;;;;;;7.65;48.14;98525.25;1219661;75;3089554;-66
2024/01/27 00:58:51;;;;;;;1.15;0.60;;;;;;;7.59;48.66;98527.72;1223823;75;2941058;-66
2024/01/27 01:01:24;;;;;;;1.85;0.70;;;;;;;7.56;48.37;98525.13;1224257;75;2923455;-68
2024/01/27 01:03:56;;;;;;;2.40;0.65;;;;;;;7.60;48.31;98533.94;1224103;75;2927964;-65
2024/01/27 01:06:29;;;;;;;1.15;0.50;;;;;;;7.51;48.66;98522.94;1224476;75;2918873;-66
2024/01/27 01:09:02;;;;;;;1.10;0.55;;;;;;;7.63;47.57;98525.69;1223448;75;2930465;-65
2024/01/27 01:11:35;;;;;;;1.60;0.70;;;;;;;7.66;47.47;98535.69;1223594;75;2928124;-67
2024/01/27 01:14:11;;;;;;;2.20;0.55;;;;;;;7.68;47.23;98533.31;1224095;75;2930780;-68
2024/01/27 01:16:45;;;;;;;1.65;0.60;;;;;;;7.50;47.65;98530.31;1223382;75;2926502;-66
2024/01/27 01:19:17;;;;;;;2.10;0.60;;;;;;;7.36;48.33;98522.56;1224211;75;2924775;-66
2024/01/27 01:21:50;;;;;;;0.60;0.40;;;;;;;7.36;48.42;98528.00;1224008;75;2922678;-65
2024/01/27 01:24:23;;;;;;;0.90;0.60;;;;;;;7.34;48.21;98530.44;1223301;75;2932926;-65
2024/01/27 01:26:56;;;;;;;0.50;0.50;;;;;;;7.42;47.24;98540.66;1223086;75;2932929;-64
2024/01/27 01:29:31;;;;;;;1.90;0.70;;;;;;;7.25;47.96;98531.81;1223411;75;2925249;-66
2024/01/27 01:32:04;;;;;;;0.95;0.70;;;;;;;7.61;46.04;98528.06;1223589;75;2930264;-66
2024/01/27 01:34:37;;;;;;;1.75;0.45;;;;;;;7.65;46.57;98538.88;1223329;75;2928892;-66
2024/01/27 01:37:09;;;;;;;2.60;0.60;;;;;;;7.59;46.30;98543.31;1223192;75;2924429;-64
2024/01/27 01:39:42;;;;;;;1.30;0.50;;;;;;;7.54;46.33;98541.13;1224730;75;2924812;-65
2024/01/27 01:42:15;;;;;;;1.10;0.45;;;;;;;7.65;45.65;98547.06;1222811;75;2930063;-68
2024/01/27 01:44:50;;;;;;;2.65;0.60;;;;;;;7.62;46.39;98545.16;1223739;75;2925763;-67
2024/01/27 01:47:24;;;;;;;1.20;0.40;;;;;;;7.56;45.94;98534.06;1224001;75;2925456;-68
2024/01/27 01:49:58;;;;;;;1.25;0.65;;;;;;;7.56;46.47;98541.47;1223397;75;2927389;-66
2024/01/27 01:52:31;;;;;;;1.75;0.60;;;;;;;7.41;46.79;98539.16;1223983;75;2925024;-67
2024/01/27 01:55:04;;;;;;;1.00;0.50;;;;;;;7.55;46.31;98538.00;1223874;75;2925445;-67
2024/01/27 01:57:39;;;;;;;2.30;0.95;;;;;;;7.46;45.93;98537.84;1223288;75;2927411;-68
2024/01/27 02:00:16;;;;;;;0.90;0.30;;;;;;;7.54;45.77;98550.06;1224029;75;2920828;-66
2024/01/27 02:02:49;;;;;;;2.00;0.60;;;;;;;7.53;45.82;98550.50;1223865;75;2923349;-67
2024/01/27 02:05:22;;;;;;;1.65;0.40;;;;;;;7.49;45.71;98547.13;1224279;75;2918523;-66
2024/01/27 02:07:56;;;;;;;0.45;0.40;;;;;;;7.33;46.33;98567.78;1223386;75;2923560;-67
2024/01/27 02:10:35;;;;;;;0.75;0.50;;;;;;;7.57;44.52;98559.34;1223757;75;2926631;-67
2024/01/27 02:13:20;;;;;;;1.55;0.50;;;;;;;7.53;44.80;98553.22;1224088;75;2930418;-66
2024/01/27 02:15:55;;;;;;;0.50;0.40;;;;;;;7.40;45.05;98558.66;1224048;75;2924911;-65
2024/01/27 02:18:28;;;;;;;1.70;0.50;;;;;;;7.33;45.25;98550.66;1223973;75;2926088;-68
2024/01/27 02:21:01;;;;;;;1.90;0.55;;;;;;;7.39;45.10;98555.16;1223894;75;2927189;-64
2024/01/27 02:23:34;;;;;;;1.60;0.70;;;;;;;7.46;44.54;98554.97;1224076;75;2951610;-67
2024/01/27 02:26:09;;;;;;;0.60;0.60;;;;;;;7.43;44.70;98550.38;1223832;75;2931030;-68
2024/01/27 02:28:42;;;;;;;0.70;0.45;;;;;;;7.36;44.10;98557.97;1224564;75;2926378;-66
2024/01/27 02:31:15;;;;;;;0.80;0.40;;;;;;;7.43;44.15;98565.94;1224361;75;2923359;-67
2024/01/27 02:33:48;;;;;;;0.55;0.40;;;;;;;7.34;44.02;98561.16;1223831;75;2943406;-66
2024/01/27 02:36:21;;;;;;;1.10;0.40;;;;;;;7.36;43.96;98561.47;1224604;75;2912018;-66
2024/01/27 02:38:53;;;;;;;0.40;0.30;;;;;;;7.23;44.39;98561.41;1224094;75;2923505;-66
2024/01/27 02:41:29;;;;;;;0.60;0.45;;;;;;;7.39;44.07;98557.88;1224601;75;2929249;-66
2024/01/27 02:44:02;;;;;;;2.20;0.40;;;;;;;7.28;44.25;98562.09;1225698;75;2920147;-68
2024/01/27 02:46:34;;;;;;;2.80;0.50;;;;;;;6.95;45.08;98568.41;1225085;75;2918848;-67
2024/01/27 02:49:07;;;;;;;2.00;0.50;;;;;;;6.90;45.33;98568.91;1224175;75;2923331;-65
2024/01/27 02:51:40;;;;;;;1.25;0.50;;;;;;;6.97;45.34;98560.56;1226220;75;2913072;-68
2024/01/27 02:54:13;;;;;;;0.90;0.40;;;;;;;7.11;44.82;98570.31;1226302;75;2917138;-64
2024/01/27 02:56:48;;;;;;;0.50;0.20;;;;;;;6.91;45.69;98565.00;1225306;75;2918227;-67
2024/01/27 02:59:21;;;;;;;0.75;0.40;;;;;;;6.70;45.74;98568.25;1225700;75;2913855;-68
2024/01/27 03:01:54;;;;;;;1.75;0.40;;;;;;;6.74;45.35;98566.22;1225231;75;2918295;-68
2024/01/27 03:04:27;;;;;;;0.60;0.40;;;;;;;6.89;44.52;98572.81;1224839;75;2919743;-68
2024/01/27 03:07:00;;;;;;;0.55;0.40;;;;;;;6.92;44.71;98577.41;1226337;75;2919460;-67
2024/01/27 03:09:33;;;;;;;0.95;0.30;;;;;;;6.79;45.29;98574.63;1226603;75;2913124;-66
2024/01/27 03:12:09;;;;;;;0.45;0.30;;;;;;;6.49;46.67;98577.69;1225127;75;2920300;-66
2024/01/27 03:14:42;;;;;;;0.55;0.45;;;;;;;6.73;45.47;98579.03;1226109;75;2921473;-65
2024/01/27 03:17:14;;;;;;;0.25;0.25;;;;;;;6.66;45.71;98587.38;1224779;75;2919930;-67
2024/01/27 03:19:47;;;;;;;0.40;0.30;;;;;;;6.47;46.61;98594.47;1225232;75;2912193;-66
2024/01/27 03:22:20;;;;;;;1.45;0.55;;;;;;;6.21;46.77;98595.47;1225660;75;2917781;-67
2024/01/27 03:24:55;;;;;;;1.55;0.50;;;;;;;6.03;47.72;98595.84;1224866;75;2924870;-67
2024/01/27 03:27:30;;;;;;;1.75;0.50;;;;;;;5.95;48.10;98606.88;1225686;75;2869174;-67
2024/01/27 03:30:05;;;;;;;1.40;0.50;;;;;;;5.68;48.53;98619.84;1226138;75;2912927;-69
2024/01/27 03:32:38;;;;;;;2.80;0.60;;;;;;;5.49;49.51;98603.13;1225285;75;2923584;-67
2024/01/27 03:35:11;;;;;;;2.80;0.45;;;;;;;5.67;48.85;98610.16;1224970;75;2915487;-67
2024/01/27 03:37:45;;;;;;;1.05;0.40;;;;;;;5.62;49.28;98611.41;1225975;75;2917923;-66
2024/01/27 03:40:18;;;;;;;1.20;0.50;;;;;;;5.64;49.92;98619.13;1225548;75;2920191;-68
2024/01/27 03:42:53;;;;;;;1.90;0.90;;;;;;;5.67;48.66;98629.16;1225373;75;2920773;-65
2024/01/27 03:45:26;;;;;;;2.20;0.90;;;;;;;5.67;49.09;98618.28;1224712;75;2909894;-66
2024/01/27 03:47:59;;;;;;;2.30;1.00;;;;;;;5.45;50.22;98617.94;1224464;75;2914962;-67
2024/01/27 03:50:32;;;;;;;1.25;0.80;;;;;;;5.39;50.44;98625.81;1225360;75;2929080;-66
2024/01/27 03:53:04;;;;;;;2.05;1.00;;;;;;;5.29;50.76;98616.69;1224788;75;2909108;-65
2024/01/27 03:55:37;;;;;;;2.70;1.20;;;;;;;5.35;50.46;98616.97;1224497;75;2924241;-65
2024/01/27 03:58:13;;;;;;;2.30;1.10;;;;;;;5.40;50.05;98615.72;1225918;75;2914273;-65
2024/01/27 04:00:45;;;;;;;2.10;1.10;;;;;;;5.43;50.59;98614.88;1225230;75;2910052;-67
2024/01/27 04:03:18;;;;;;;2.65;0.95;;;;;;;5.35;50.62;98616.97;1224712;75;2916894;-67
2024/01/27 04:05:51;;;;;;;1.25;0.70;;;;;;;5.12;50.63;98623.97;1225716;75;2915788;-66
2024/01/27 04:08:24;;;;;;;1.30;0.70;;;;;;;5.21;50.85;98630.81;1224907;75;2913577;-67
2024/01/27 04:10:57;;;;;;;1.75;0.85;;;;;;;5.10;50.62;98642.63;1225031;75;2915443;-65
2024/01/27 04:13:32;;;;;;;1.00;0.60;;;;;;;4.97;51.84;98646.34;1226188;75;2917135;-66
2024/01/27 04:16:05;;;;;;;1.35;0.60;;;;;;;4.86;51.33;98639.16;1224194;75;2922673;-64
2024/01/27 04:18:38;;;;;;;0.85;0.50;;;;;;;4.82;51.99;98641.16;1224541;75;2919788;-67
2024/01/27 04:21:11;;;;;;;0.95;0.40;;;;;;;4.84;52.03;98638.03;1225493;75;2916191;-67
2024/01/27 04:23:43;;;;;;;0.80;0.50;;;;;;;4.81;51.56;98639.63;1225239;75;2918372;-67
2024/01/27 04:26:16;;;;;;;0.50;0.50;;;;;;;4.86;52.15;98644.56;1224217;75;2919973;-67
2024/01/27 04:28:52;;;;;;;0.60;0.40;;;;;;;4.68;52.79;98636.72;1224977;75;2918064;-67
2024/01/27 04:31:24;;;;;;;1.10;0.50;;;;;;;4.53;52.88;98648.97;1225025;75;2923416;-65
2024/01/27 04:33:58;;;;;;;1.55;0.75;;;;;;;4.84;52.00;98638.03;1225126;75;2915649;-69
2024/01/27 04:36:31;;;;;;;3.05;0.60;;;;;;;4.75;52.41;98648.63;1226015;75;2923075;-66
2024/01/27 04:39:04;;;;;;;2.50;0.80;;;;;;;4.74;52.00;98657.94;1225184;75;2914857;-65
2024/01/27 04:41:37;;;;;;;1.10;0.70;;;;;;;4.75;52.46;98654.06;1224892;75;2921255;-66
2024/01/27 04:44:12;;;;;;;2.45;0.70;;;;;;;4.56;53.21;98658.97;1225794;75;2911629;-67
2024/01/27 04:46:45;;;;;;;1.25;0.70;;;;;;;4.43;54.35;98674.28;1224469;75;2920551;-67
2024/01/27 04:49:19;;;;;;;2.30;0.80;;;;;;;4.31;54.13;98672.91;1225410;75;2906636;-66
2024/01/27 04:51:52;;;;;;;1.30;0.60;;;;;;;4.30;54.59;98668.63;1225193;75;2914772;-65
2024/01/27 04:54:24;;;;;;;1.60;0.85;;;;;;;4.24;54.63;98681.88;1224561;75;2920465;-66
2024/01/27 04:56:57;;;;;;;1.05;0.75;;;;;;;4.16;55.06;98687.78;1225048;75;2918977;-66
2024/01/27 04:59:33;;;;;;;1.50;0.90;;;;;;;3.99;56.09;98684.13;1225708;75;2915203;-66
2024/01/27 05:02:06;;;;;;;3.30;1.10;;;;;;;3.82;56.17;98692.09;1224481;75;2921559;-68
2024/01/27 05:04:40;;;;;;;2.65;0.80;;;;;;;3.70;56.61;98698.00;1224854;75;2920136;-67
2024/01/27 05:07:13;;;;;;;0.85;0.65;;;;;;;3.74;56.72;98700.69;1225363;75;2911448;-66
2024/01/27 05:09:45;;;;;;;1.70;0.90;;;;;;;3.62;57.02;98702.72;1225529;75;2912637;-64
2024/01/27 05:12:18;;;;;;;1.05;0.80;;;;;;;3.61;57.25;98700.44;1225506;75;2920426;-66
2024/01/27 05:14:54;;;;;;;1.10;0.70;;;;;;;3.51;57.66;98702.09;1225259;75;2939519;-65
2024/01/27 05:17:27;;;;;;;1.10;0.70;;;;;;;3.36;58.32;98706.84;1224604;75;2930245;-66
2024/01/27 05:20:03;;;;;;;2.10;0.60;;;;;;;3.27;58.69;98712.00;1224882;75;2918022;-66
2024/01/27 05:22:36;;;;;;;0.80;0.60;;;;;;;3.23;59.37;98719.38;1224536;75;2927952;-66
2024/01/27 05:25:10;;;;;;;0.75;0.55;;;;;;;3.33;58.79;98723.91;1223723;75;2917106;-68
2024/01/27 05:27:43;;;;;;;1.70;0.70;;;;;;;3.33;58.54;98725.84;1225097;75;2922306;-67
2024/01/27 05:30:20;;;;;;;1.25;0.80;;;;;;;3.28;58.89;98724.34;1224540;75;2917744;-65
2024/01/27 05:32:53;;;;;;;2.15;0.90;;;;;;;3.32;58.54;98743.25;1225914;75;2917608;-67
2024/01/27 05:35:26;;;;;;;1.95;0.70;;;;;;;3.31;58.82;98749.84;1224466;75;2919558;-66
2024/01/27 05:37:59;;;;;;;2.05;0.95;;;;;;;3.32;58.53;98743.25;1224209;75;2960340;-66
2024/01/27 05:40:32;;;;;;;0.85;0.70;;;;;;;3.21;58.68;98754.16;1226305;75;2916748;-66
2024/01/27 05:43:04;;;;;;;2.10;0.70;;;;;;;3.28;58.81;98746.00;1225524;75;2915143;-65
2024/01/27 05:45:40;;;;;;;2.35;0.90;;;;;;;2.99;60.44;98753.56;1225126;75;2916411;-65
2024/01/27 05:48:13;;;;;;;1.85;1.00;;;;;;;3.48;58.14;98756.25;1225643;75;2914399;-66
2024/01/27 05:50:46;;;;;;;1.65;0.80;;;;;;;3.57;57.49;98756.56;1221309;75;3186249;-65
2024/01/27 05:53:19;;;;;;;1.25;0.90;;;;;;;3.89;56.78;98764.34;1224575;75;2922483;-65
2024/01/27 05:55:52;;;;;;;3.20;1.30;;;;;;;4.18;55.42;98761.34;1225827;75;2908577;-66
2024/01/27 05:58:25;;;;;;;2.65;1.40;;;;;;;4.45;55.18;98772.25;1224767;75;2919882;-65
2024/01/27 06:01:00;;;;;;;4.00;1.30;;;;;;;4.33;55.15;98775.47;1225610;75;2923843;-65
2024/01/27 06:03:35;;;;;;;4.00;1.70;;;;;;;4.28;55.61;98765.84;1226141;75;2918410;-67
2024/01/27 06:06:08;;;;;;;2.00;0.90;;;;;;;4.37;55.28;98770.78;1224953;75;2921725;-66
2024/01/27 06:08:41;;;;;;;1.25;0.60;;;;;;;4.38;55.39;98775.81;1225548;75;2914386;-64
2024/01/27 06:11:14;;;;;;;2.50;1.00;;;;;;;4.40;55.62;98783.53;1225365;75;2929952;-68
2024/01/27 06:13:48;;;;;;;2.20;1.05;;;;;;;4.37;55.16;98778.94;1224824;75;2925895;-66
2024/01/27 06:16:25;;;;;;;2.70;0.90;;;;;;;4.38;54.74;98786.66;1225144;75;2953274;-65
2024/01/27 06:18:57;;;;;;;1.95;1.10;;;;;;;4.35;54.91;98795.59;1225328;75;2919424;-67
2024/01/27 06:21:30;;;;;;;2.80;1.30;;;;;;;4.31;55.27;98797.59;1225226;75;2939391;-65
2024/01/27 06:24:03;;;;;;;3.90;1.90;;;;;;;4.37;55.11;98795.19;1225403;75;2925371;-65
2024/01/27 06:26:36;;;;;;;2.70;1.40;;;;;;;4.43;54.96;98801.72;1224952;75;2915011;-65
2024/01/27 06:29:08;;;;;;;4.75;1.85;;;;;;;4.36;54.53;98797.16;1224817;75;2920509;-66
2024/01/27 06:31:44;;;;;;;2.85;1.60;;;;;;;4.37;54.81;98803.31;1225658;75;2915559;-66
2024/01/27 06:34:17;;;;;;;3.35;1.30;;;;;;;4.39;55.04;98799.03;1224184;75;2922467;-67
2024/01/27 06:36:49;;;;;;;2.65;1.30;;;;;;;4.41;54.82;98807.53;1225118;75;2921183;-67
2024/01/27 06:39:22;;;;;;;2.60;1.20;;;;;;;4.44;54.50;98800.53;1226443;75;2917316;-65
2024/01/27 06:41:55;;;;;;;2.05;0.80;;;;;;;4.62;53.50;98809.22;1223847;75;2927720;-66
2024/01/27 06:44:28;;;;;;;1.75;1.00;;;;;;;4.69;53.12;98819.97;1224688;75;2924099;-68
2024/01/27 06:47:03;;;;;;;2.40;0.90;;;;;;;4.90;52.41;98818.16;1225283;75;2921348;-65
2024/01/27 06:49:36;;;;;;;2.55;1.00;;;;;;;4.97;52.42;98818.06;1225390;75;2920895;-66
2024/01/27 06:52:09;;;;;;;1.55;1.10;;;;;;;4.93;52.25;98824.69;1225286;75;2915504;-64
2024/01/27 06:54:44;;;;;;;1.90;0.80;;;;;;;5.02;52.61;98825.72;1224520;75;2914653;-65
2024/01/27 06:57:23;;;;;;;2.15;1.00;;;;;;;4.83;53.61;98832.56;1223911;75;2930599;-65
2024/01/27 06:59:57;;;;;;;3.15;0.95;;;;;;;4.72;53.04;98828.47;1225812;75;2917459;-65
2024/01/27 07:02:33;;;;;;;0.70;0.50;;;;;;;4.75;53.21;98830.38;1225498;75;2913620;-65
2024/01/27 07:05:06;;;;;;;1.65;0.55;;;;;;;4.75;53.83;98835.81;1224489;75;2924878;-66
2024/01/27 07:07:39;;;;;;;0.85;0.80;;;;;;;4.68;53.49;98833.94;1223812;75;2922208;-65
2024/01/27 07:10:13;;;;;;;1.45;0.80;;;;;;;4.61;54.48;98834.03;1226231;75;2915109;-64
2024/01/27 07:12:46;;;;;;;5.95;3.05;;;;;;;4.57;54.43;98836.78;1224575;75;2919188;-67
2024/01/27 07:15:20;;;;;;;6.85;4.20;;;;;;;4.48;55.14;98841.94;1224128;75;2924322;-67
2024/01/27 07:17:56;;;;;;;4.05;2.50;;;;;;;6.87;50.25;98839.22;1223533;75;2918581;-65
2024/01/27 07:20:29;;;;;;;3.10;1.70;;;;;;;8.76;45.76;98843.94;1224694;75;2932814;-68
2024/01/27 07:23:01;;;;;;;2.05;1.45;;;;;;;10.25;43.61;98850.56;1225524;75;2918121;-65
2024/01/27 07:25:34;;;;;;;4.10;1.20;;;;;;;10.80;43.12;98850.19;1225346;75;2929351;-66
2024/01/27 07:28:07;;;;;;;2.35;1.40;;;;;;;12.14;39.83;98852.78;1224561;75;2918049;-66
2024/01/27 07:30:41;;;;;;;2.90;1.55;;;;;;;12.88;38.50;98860.97;1225502;75;2916808;-67
2024/01/27 07:33:16;;;;;;;2.80;1.70;;;;;;;13.97;37.01;98852.69;1225215;75;2924102;-68
2024/01/27 07:35:49;;;;;;;2.60;1.50;;;;;;;14.23;35.59;98850.19;1225406;75;2929438;-66
2024/01/27 07:38:22;;;;;;;8.15;4.45;;;;;;;14.46;34.33;98856.91;1225905;75;2913842;-67
2024/01/27 07:40:55;;;;;;;5.20;2.00;;;;;;;14.79;35.11;98854.03;1224894;75;2920261;-67
2024/01/27 07:43:30;;;;;;;3.25;1.50;;;;;;;18.28;31.69;98860.41;1225247;75;2931192;-67
2024/01/27 07:46:02;;;;;;;2.10;1.15;;;;;;;17.17;32.27;98852.97;1225548;75;2914535;-67
2024/01/27 07:48:38;;;;;;;5.95;1.30;;;;;;;14.94;34.71;98870.56;1224793;75;2925195;-69
2024/01/27 07:51:11;;;;;;;2.85;1.80;;;;;;;13.12;36.81;98878.28;1224490;75;2909687;-68
2024/01/27 07:53:43;;;;;;;6.50;2.20;;;;;;;11.49;38.74;98879.28;1225645;75;2921018;-64
2024/01/27 07:56:16;;;;;;;2.75;1.65;;;;;;;11.49;39.41;98887.50;1224677;75;2914561;-66
2024/01/27 07:58:49;;;;;;;1.20;0.90;;;;;;;11.13;39.48;98894.38;1224993;75;2924305;-69
2024/01/27 08:01:23;;;;;;;2.35;1.05;;;;;;;10.96;40.05;98884.84;1225771;75;2924161;-68
2024/01/27 08:03:59;;;;;;;1.05;0.70;;;;;;;11.94;39.45;98880.66;1224525;75;2922698;-66
2024/01/27 08:06:32;;;;;;;4.90;0.80;;;;;;;12.88;36.38;98883.69;1225649;75;2910844;-67
2024/01/27 08:09:05;;;;;;;2.25;1.00;;;;;;;14.92;35.31;98895.09;1224470;75;2920452;-66
2024/01/27 08:11:38;;;;;;;1.65;0.80;;;;;;;16.12;33.46;98890.88;1225006;75;2920005;-65
2024/01/27 08:14:11;;;;;;;1.65;0.60;;;;;;;17.06;32.34;98888.84;1225298;75;2920752;-65
2024/01/27 08:16:44;;;;;;;1.30;0.70;;;;;;;16.67;32.59;98887.22;1225381;75;2922227;-67
2024/01/27 08:19:20;;;;;;;2.95;0.65;;;;;;;15.66;33.10;98892.25;1224908;75;2917417;-65
2024/01/27 08:21:53;;;;;;;2.35;1.00;;;;;;;15.44;33.51;98903.72;1225511;75;2916015;-64
2024/01/27 08:24:26;;;;;;;1.45;0.70;;;;;;;16.37;32.92;98903.97;1224489;75;2925011;-68
2024/01/27 08:27:00;;;;;;;5.40;1.25;;;;;;;15.94;32.80;98909.19;1225712;75;2921072;-65
2024/01/27 08:29:33;;;;;;;1.70;0.90;;;;;;;16.17;32.43;98913.03;1225936;75;2927756;-65
2024/01/27 08:32:06;;;;;;;1.45;0.60;;;;;;;16.79;33.15;98910.25;1225457;75;2917730;-67
2024/01/27 08:34:41;;;;;;;2.25;0.75;;;;;;;17.32;32.90;98917.25;1225085;75;2911374;-66
2024/01/27 08:37:22;;;;;;;6.05;1.45;;;;;;;12.69;36.96;98929.66;1224956;75;2915188;-65
2024/01/27 08:39:55;;;;;;;3.35;1.60;;;;;;;11.50;40.27;98943.91;1224320;75;2924053;-65
2024/01/27 08:42:28;;;;;;;8.15;1.75;;;;;;;11.95;40.19;98939.81;1225408;75;2922896;-63
2024/01/27 08:45:01;;;;;;;2.95;1.50;;;;;;;12.87;39.10;98939.13;1225253;75;2914578;-67
2024/01/27 08:47:34;;;;;;;3.35;1.60;;;;;;;11.07;41.07;98934.53;1224829;75;2937579;-66
2024/01/27 08:50:13;;;;;;;2.95;1.55;;;;;;;11.26;40.86;98929.94;1225091;75;2916972;-67
2024/01/27 08:52:46;;;;;;;2.15;1.20;;;;;;;13.27;39.46;98929.88;1223737;75;2919942;-66
2024/01/27 08:55:19;;;;;;;2.00;1.10;;;;;;;11.89;39.72;98938.88;1225304;75;2921731;-67
2024/01/27 08:57:52;;;;;;;5.15;1.55;;;;;;;10.94;41.48;98939.31;1225515;75;2923040;-66
2024/01/27 09:00:25;;;;;;;4.00;1.20;;;;;;;12.92;40.16;98941.28;1224923;75;2923944;-68
2024/01/27 09:02:58;;;;;;;4.10;1.70;;;;;;;13.03;38.89;98943.53;1224665;75;2924251;-69
2024/01/27 09:05:33;;;;;;;1.60;0.85;;;;;;;14.46;36.61;98943.06;1225805;75;2918671;-67
2024/01/27 09:08:07;;;;;;;1.50;0.90;;;;;;;12.49;39.75;98948.59;1224897;75;2918042;-68
2024/01/27 09:10:40;;;;;;;3.25;1.70;;;;;;;11.48;40.38;98954.56;1225315;75;2913762;-67
2024/01/27 09:13:13;;;;;;;2.45;1.15;;;;;;;12.54;39.04;98950.75;1224334;75;2925800;-67
2024/01/27 09:15:46;;;;;;;2.20;0.90;;;;;;;14.11;37.92;98962.13;1224959;75;2914396;-67
2024/01/27 09:18:19;;;;;;;2.90;1.00;;;;;;;14.65;36.54;98954.00;1225515;75;2898688;-66
2024/01/27 09:20:54;;;;;;;4.00;1.15;;;;;;;14.48;37.88;98975.69;1225763;75;2913401;-69
2024/01/27 09:23:27;;;;;;;2.55;0.90;;;;;;;14.04;37.26;98968.72;1224962;75;2919150;-66
2024/01/27 09:26:00;;;;;;;1.35;1.00;;;;;;;13.50;37.58;98972.50;1224830;75;2916364;-68
2024/01/27 09:28:33;;;;;;;2.35;1.00;;;;;;;15.08;37.01;98966.31;1224779;75;2918827;-66
2024/01/27 09:31:06;;;;;;;2.55;1.10;;;;;;;15.41;35.40;98970.88;1222409;75;3050948;-66
2024/01/27 09:33:39;;;;;;;3.05;1.40;;;;;;;15.12;34.92;98966.88;1226417;75;2916091;-68
2024/01/27 09:36:14;;;;;;;2.55;1.50;;;;;;;14.06;35.80;98976.53;1225710;75;2909168;-66
2024/01/27 09:38:47;;;;;;;3.25;1.60;;;;;;;12.83;38.53;98975.00;1225107;75;2913288;-66
2024/01/27 09:41:20;;;;;;;2.05;1.10;;;;;;;13.64;39.51;98975.34;1225711;75;2922776;-67
2024/01/27 09:43:54;;;;;;;3.05;1.20;;;;;;;13.68;37.49;98977.16;1225847;75;2920074;-69
2024/01/27 09:46:27;;;;;;;3.10;0.90;;;;;;;13.94;36.75;98972.00;1225738;75;2918929;-65
2024/01/27 09:49:00;;;;;;;2.05;0.80;;;;;;;14.94;36.33;98977.34;1227305;75;2915303;-67
2024/01/27 09:51:36;;;;;;;4.10;1.15;;;;;;;14.37;36.89;98987.22;1226210;75;2916624;-65
2024/01/27 09:54:09;;;;;;;3.60;1.05;;;;;;;14.93;35.82;98986.81;1222998;75;2918181;-65
2024/01/27 09:56:42;;;;;;;2.40;1.00;;;;;;;15.29;35.33;98980.19;1222989;75;2935276;-68
2024/01/27 09:59:16;;;;;;;1.45;0.80;;;;;;;16.03;34.00;98985.66;1223977;75;2920144;-68
2024/01/27 10:01:51;;;;;;;1.05;0.65;;;;;;;15.28;33.70;98984.22;1224464;75;2930490;-67
2024/01/27 10:04:25;;;;;;;1.60;0.80;;;;;;;16.28;33.28;98986.25;1225685;75;2920038;-68
2024/01/27 10:07:03;;;;;;;1.50;0.60;;;;;;;16.96;31.12;98982.31;1225602;75;2929526;-66
2024/01/27 10:09:36;;;;;;;2.60;0.90;;;;;;;16.36;31.68;98979.09;1226252;75;2915423;-66
2024/01/27 10:12:11;;;;;;;0.70;0.45;;;;;;;16.34;31.01;98974.03;1226679;75;2917249;-67
2024/01/27 10:14:44;;;;;;;1.15;0.55;;;;;;;17.08;29.76;98970.13;1225772;75;2912446;-67
2024/01/27 10:17:26;;;;;;;1.10;0.50;;;;;;;18.62;29.34;98987.31;1224917;75;2915322;-66
2024/01/27 10:20:07;;;;;;;0.55;0.40;;;;;;;19.66;27.92;98985.75;1224136;75;2925699;-66
2024/01/27 10:22:47;;;;;;;0.55;0.30;;;;;;;19.39;27.20;98988.03;1225506;75;2913385;-66
2024/01/27 10:25:19;;;;;;;0.65;0.45;;;;;;;19.16;27.08;98985.19;1225624;75;2905244;-67
2024/01/27 10:27:52;;;;;;;0.70;0.40;;;;;;;21.50;26.09;98985.56;1226728;75;2910755;-68
2024/01/27 10:30:25;;;;;;;3.45;1.35;;;;;;;21.48;24.31;98986.09;1224485;75;2914528;-66
2024/01/27 10:33:01;;;;;;;3.35;1.50;;;;;;;19.24;27.11;98979.94;1226075;75;2919288;-68
2024/01/27 10:35:34;;;;;;;21.00;15.55;;;;;;;19.24;26.53;98973.59;1226532;75;2915917;-67
2024/01/27 10:38:09;;;;;;;5.20;3.00;;;;;;;19.13;26.32;98980.66;1225251;75;2913407;-69
2024/01/27 10:40:42;;;;;;;2.25;0.90;;;;;;;18.70;29.55;98964.13;1226774;75;2923927;-67
2024/01/27 10:43:15;;;;;;;3.25;0.80;;;;;;;16.85;29.11;98968.38;1224937;75;2917145;-69
2024/01/27 10:45:48;;;;;;;1.75;0.80;;;;;;;17.38;29.42;98956.03;1226806;75;2921000;-68
2024/01/27 10:48:21;;;;;;;1.25;0.60;;;;;;;18.66;27.04;98963.59;1226012;75;2910328;-69
2024/01/27 10:50:55;;;;;;;1.25;0.45;;;;;;;18.10;26.52;98958.56;1225964;75;2912093;-67
2024/01/27 10:53:35;;;;;;;0.70;0.40;;;;;;;18.62;25.11;98954.78;1220019;75;2987008;-68
2024/01/27 10:56:09;;;;;;;0.85;0.20;;;;;;;20.48;24.30;98957.53;1220694;75;3229651;-66
2024/01/27 10:58:44;;;;;;;0.75;0.25;;;;;;;19.16;24.57;98957.44;1225686;75;2919377;-66
2024/01/27 11:01:19;;;;;;;0.60;0.30;;;;;;;16.94;25.25;98952.38;1225852;75;2921509;-67
2024/01/27 11:03:53;;;;;;;0.60;0.25;;;;;;;16.80;25.22;98951.22;1226192;75;2915340;-67
2024/01/27 11:06:27;;;;;;;0.80;0.30;;;;;;;18.12;24.80;98944.22;1223919;75;2923387;-69
2024/01/27 11:09:03;;;;;;;0.50;0.20;;;;;;;19.81;24.21;98950.13;1226575;75;2922794;-68
2024/01/27 11:11:36;;;;;;;0.85;0.40;;;;;;;19.59;23.69;98959.22;1225072;75;2922630;-67
2024/01/27 11:14:11;;;;;;;1.20;0.30;;;;;;;19.55;23.31;98961.50;1225559;67;2935609;-68
2024/01/27 11:16:47;;;;;;;2.25;0.50;;;;;;;17.69;25.00;98960.81;1226486;75;2909403;-66
2024/01/27 11:19:21;;;;;;;3.20;1.50;;;;;;;17.43;24.97;98952.56;1224838;75;2939133;-66
2024/01/27 11:22:04;;;;;;;2.45;0.80;;;;;;;16.69;25.39;98953.06;1225782;75;2920070;-67
2024/01/27 11:24:40;;;;;;;0.80;0.30;;;;;;;18.94;24.35;98955.38;1224901;75;2925866;-67
2024/01/27 11:27:15;;;;;;;0.40;0.20;;;;;;;19.09;25.56;98963.50;1226971;75;2911318;-68
2024/01/27 11:29:51;;;;;;;2.40;0.35;;;;;;;17.60;25.20;98958.22;1225522;75;2918459;-66
2024/01/27 11:32:25;;;;;;;1.95;0.65;;;;;;;18.52;25.73;98956.28;1224773;75;2922186;-68
2024/01/27 11:34:58;;;;;;;1.85;0.50;;;;;;;17.02;24.76;98970.03;1225460;75;2921188;-67
2024/01/27 11:37:35;;;;;;;1.25;0.50;;;;;;;17.72;24.19;98964.59;1225669;75;2916976;-66
2024/01/27 11:40:16;;;;;;;0.30;0.10;;;;;;;19.25;23.96;98972.34;1225546;75;2917558;-67
2024/01/27 11:42:59;;;;;;;1.05;0.35;;;;;;;20.28;22.49;98977.34;1225754;75;2925477;-66
2024/01/27 11:45:32;;;;;;;1.15;0.50;;;;;;;18.99;22.84;98973.31;1225759;75;2918078;-67
2024/01/27 11:48:06;;;;;;;0.65;0.30;;;;;;;18.15;23.28;98973.72;1224198;75;2924688;-68
2024/01/27 11:50:39;;;;;;;0.70;0.30;;;;;;;20.44;22.85;98970.94;1225888;75;2923660;-66
2024/01/27 11:53:12;;;;;;;1.00;0.20;;;;;;;20.61;21.30;98968.13;1225733;75;2922794;-67